Airfield :
LOGIN :

Register | Disclaimer

   EN    FR    IT 

 










Legend :    VFR   Marginal VFR   IFR   Intensive IFR   Very Intensive IFR
Visi :
Ceiling :
>= 8 km
>= 3000ft
5 to 8 km
1000 to 3000 ft
1500m to 5 km
500 to 1000 ft
800 to 1500m
200 to 500 ft
< 800m
< 200 ft
Symbols :   Thunderstorms  Fog  Heavy snow  Heavy precipitations  Wind > 20 kt
SIGMETs :     Misc.  Thunderstorms  Icing  Turbulence  Mountain Waves  Volcanic Ashes







- Airport Elevation : 1416 ft
- IATA code : ZRH


LSZH - Zurich

CURRENT METAR :
  • 251720Z 06007KT 020V110 9999 FEW060 22/07 Q1022 NOSIG

EXPIRED METARs :
  • 251650Z VRB03KT 9999 FEW060 22/07 Q1022 NOSIG
  • 251620Z 04007KT 340V100 9999 FEW060 22/07 Q1022 NOSIG
  • 251550Z 06009KT 9999 FEW060 21/07 Q1022 NOSIG
  • 251520Z 02006KT 9999 FEW056 22/07 Q1022 NOSIG
  • 251450Z 03007KT 360V090 9999 FEW054 22/08 Q1022 NOSIG

TAF TAF LSZH
Valid from the 25 at 18:00 until the 27 at 00:00 UTC


251725Z 2518/2624 02006KT 9999 SCT060 TX25/2615Z TN09/2604Z
BECMG 2518/2520 CAVOK
BECMG 2520/2523 VRB03KT
BECMG 2607/2610 05008KT
BECMG 2610/2612 9999 FEW055
BECMG 2618/2620 CAVOK
ATIS : +41 43 816 2295 (DEP) +41 43 816 2294 (ARR)
No reported NOTAMs for that airfield.



MET'MAP, your aeronautical weather chart ! - Copyright ORBIFLY December 2007 - Disclaimer

ORBIFLY MET'MAP TEAM :

Programming & Development : Alexandra Zaïnal
Concept & Development : Baudouin d'Aumeries
Co-Development & Prog : Marc-Olivier Méhu
Technical & hardware support : Manuel Goepfert

Contact : metmap@orbifly.com




SOURCES & CREDITS :

   NOAA